Time;durP1;ratioP1;P1;durP2;ratioP2;P2;SDS_P1;SDS_P2;PMS_P1;PMS_P2;Temp;Humidity;BMP_temperature;BMP_pressure;BME280_temperature;BME280_humidity;BME280_pressure;Samples;Min_cycle;Max_cycle;Signal;HPM_P1;HPM_P2
2021/04/13 00:00:34;;;;;;;151.77;145.10;;;0.10;99.90;;;;;;5136173;27;20618;-81
2021/04/13 00:03:06;;;;;;;155.93;148.93;;;-0.10;99.90;;;;;;5136089;27;20601;-81
2021/04/13 00:05:36;;;;;;;153.27;146.43;;;-0.30;99.90;;;;;;5135989;27;20236;-81
2021/04/13 00:08:11;;;;;;;155.07;148.20;;;-0.40;99.90;;;;;;5134611;27;20191;-80
2021/04/13 00:10:43;;;;;;;152.63;145.60;;;-0.60;99.90;;;;;;5135922;27;20237;-81
2021/04/13 00:13:10;;;;;;;149.43;142.82;;;-0.80;99.90;;;;;;5135605;27;20645;-80
2021/04/13 00:15:43;;;;;;;148.82;142.38;;;-0.90;99.90;;;;;;5135786;27;20277;-80
2021/04/13 00:18:13;;;;;;;148.02;141.35;;;-0.90;99.90;;;;;;5136661;27;20267;-80
2021/04/13 00:20:44;;;;;;;144.15;137.77;;;-0.80;99.90;;;;;;5135608;27;20241;-81
2021/04/13 00:23:12;;;;;;;147.38;140.77;;;-1.00;99.90;;;;;;5134451;27;20198;-80
2021/04/13 00:25:47;;;;;;;154.75;147.55;;;-1.00;99.90;;;;;;5135495;27;20198;-80
2021/04/13 00:28:13;;;;;;;157.27;149.77;;;-1.00;99.90;;;;;;5135425;27;20190;-80
2021/04/13 00:30:44;;;;;;;152.23;145.57;;;-1.00;99.90;;;;;;5135306;27;20327;-80
2021/04/13 00:33:15;;;;;;;151.98;145.32;;;-0.90;99.90;;;;;;5135799;27;20222;-80
2021/04/13 00:35:45;;;;;;;150.02;143.30;;;-0.90;99.90;;;;;;5135187;27;20222;-81
2021/04/13 00:38:29;;;;;;;148.90;142.25;;;-0.90;99.90;;;;;;5134101;27;20229;-79
2021/04/13 00:41:00;;;;;;;153.70;146.90;;;-0.90;99.90;;;;;;5135156;27;20206;-81
2021/04/13 00:43:28;;;;;;;157.55;150.82;;;-1.00;99.90;;;;;;5135233;27;20190;-80
2021/04/13 00:45:57;;;;;;;149.30;142.55;;;-1.10;99.90;;;;;;5135005;27;20363;-80
2021/04/13 00:48:27;;;;;;;150.40;143.82;;;-1.00;99.90;;;;;;5135044;27;20229;-81
2021/04/13 00:51:01;;;;;;;156.10;149.30;;;-1.10;99.90;;;;;;5134802;27;20244;-80
2021/04/13 00:53:31;;;;;;;153.70;146.52;;;-1.00;99.90;;;;;;5133861;27;20285;-80
2021/04/13 00:56:02;;;;;;;155.07;147.85;;;-1.00;99.90;;;;;;5134985;27;20689;-80
2021/04/13 00:58:32;;;;;;;149.13;142.63;;;-1.00;99.90;;;;;;5134947;27;20343;-81
2021/04/13 01:01:05;;;;;;;153.60;145.80;;;-1.00;99.90;;;;;;5134841;27;20190;-80
2021/04/13 01:03:33;;;;;;;152.13;144.93;;;-1.00;99.90;;;;;;5135106;27;20630;-81
2021/04/13 01:06:00;;;;;;;152.85;145.85;;;-1.00;99.90;;;;;;5134764;27;20226;-81
2021/04/13 01:08:33;;;;;;;147.05;140.73;;;-1.00;99.90;;;;;;5133399;27;20194;-80
2021/04/13 01:11:07;;;;;;;152.00;144.90;;;-1.00;99.90;;;;;;5134602;27;20225;-80
2021/04/13 01:13:43;;;;;;;152.73;145.82;;;-1.10;99.90;;;;;;5134752;27;20186;-80
2021/04/13 01:16:11;;;;;;;155.05;147.65;;;-1.20;99.90;;;;;;5134573;27;20661;-80
2021/04/13 01:18:41;;;;;;;154.32;147.30;;;-1.10;99.90;;;;;;5134572;27;20217;-80
2021/04/13 01:21:21;;;;;;;149.23;141.48;;;-1.20;99.90;;;;;;5134428;27;20686;-81
2021/04/13 01:23:52;;;;;;;147.68;141.18;;;-1.20;99.90;;;;;;5133879;27;20186;-80
2021/04/13 01:26:20;;;;;;;152.65;144.00;;;-1.20;99.90;;;;;;5134299;27;20194;-80
2021/04/13 01:28:51;;;;;;;148.07;141.43;;;-1.30;99.90;;;;;;5134361;27;20320;-80
2021/04/13 01:34:07;;;;;;;144.07;137.48;;;-1.40;99.90;;;;;;5133475;27;20190;-81
2021/04/13 01:36:34;;;;;;;137.82;131.82;;;-1.50;99.90;;;;;;5133694;27;20697;-80
2021/04/13 01:39:07;;;;;;;141.80;135.20;;;-1.50;99.90;;;;;;5133809;27;20570;-80
2021/04/13 01:41:47;;;;;;;138.07;131.88;;;-1.60;99.90;;;;;;5134142;27;20337;-81
2021/04/13 01:44:17;;;;;;;137.48;130.60;;;-1.60;99.90;;;;;;5134180;27;20194;-80
2021/04/13 01:46:44;;;;;;;136.95;130.77;;;-1.70;99.90;;;;;;5134146;27;20243;-81
2021/04/13 01:49:11;;;;;;;137.43;131.10;;;-1.80;99.90;;;;;;5133878;27;20190;-80
2021/04/13 01:51:37;;;;;;;127.03;121.28;;;-1.90;99.90;;;;;;5133389;27;20281;-80
2021/04/13 01:54:10;;;;;;;128.15;121.78;;;-1.90;99.90;;;;;;5134046;27;20304;-80
2021/04/13 01:56:50;;;;;;;122.65;116.95;;;-2.00;99.90;;;;;;5134200;27;20198;-80
2021/04/13 01:59:22;;;;;;;123.72;117.13;;;-1.90;99.90;;;;;;5134152;27;20277;-81
2021/04/13 02:01:56;;;;;;;116.90;111.70;;;-2.00;99.90;;;;;;5133691;27;20253;-80
2021/04/13 02:04:27;;;;;;;113.68;108.32;;;-1.90;99.90;;;;;;5133926;27;20186;-80
2021/04/13 02:07:00;;;;;;;118.78;113.38;;;-2.00;99.90;;;;;;5132657;27;20197;-80
2021/04/13 02:09:36;;;;;;;121.10;115.80;;;-2.00;99.90;;;;;;5133776;27;20190;-81
2021/04/13 02:12:08;;;;;;;123.72;118.22;;;-2.00;99.90;;;;;;5133739;27;20193;-80
2021/04/13 02:14:40;;;;;;;126.03;119.60;;;-2.00;99.90;;;;;;5133748;27;20277;-80
2021/04/13 02:17:11;;;;;;;117.38;111.93;;;-1.70;99.90;;;;;;5133790;27;20569;-81
2021/04/13 02:19:37;;;;;;;119.15;114.00;;;-1.60;99.90;;;;;;5133756;27;20284;-81
2021/04/13 02:22:07;;;;;;;121.47;115.97;;;-1.80;99.90;;;;;;5136431;27;20257;-81
2021/04/13 02:24:37;;;;;;;124.30;117.63;;;-1.80;99.90;;;;;;5137786;27;20282;-80
2021/04/13 02:27:11;;;;;;;119.05;113.65;;;-1.80;99.90;;;;;;5137846;27;20190;-80
2021/04/13 02:32:14;;;;;;;120.00;114.07;;;-2.00;99.90;;;;;;5095123;28;20223;-81
2021/04/13 02:34:46;;;;;;;129.90;123.78;;;-1.90;99.90;;;;;;5096887;28;20286;-81
2021/04/13 02:37:17;;;;;;;129.50;123.50;;;-1.80;99.90;;;;;;5095573;28;20275;-81
2021/04/13 02:39:45;;;;;;;123.80;118.43;;;-1.50;99.90;;;;;;5096776;28;20196;-81
2021/04/13 02:42:17;;;;;;;136.15;129.48;;;-1.40;99.90;;;;;;5096711;28;20362;-81
2021/04/13 02:44:54;;;;;;;137.82;130.27;;;-1.30;99.90;;;;;;5096543;28;20328;-81
2021/04/13 02:47:21;;;;;;;139.70;133.55;;;-1.10;99.90;;;;;;5096318;28;20286;-81
2021/04/13 02:49:48;;;;;;;140.52;134.18;;;-1.10;99.90;;;;;;5096325;28;20722;-81
2021/04/13 02:52:20;;;;;;;140.20;133.98;;;-1.20;99.90;;;;;;5095176;28;20636;-82
2021/04/13 02:54:50;;;;;;;150.65;139.20;;;-1.10;99.90;;;;;;5096720;28;20204;-81
2021/04/13 02:57:22;;;;;;;156.57;148.57;;;-1.10;99.90;;;;;;5096304;28;20227;-81
2021/04/13 02:59:48;;;;;;;155.05;148.05;;;-0.90;99.90;;;;;;5096287;28;20249;-81
2021/04/13 03:02:22;;;;;;;154.02;146.93;;;-0.90;99.90;;;;;;5096088;28;20247;-82
2021/04/13 03:04:51;;;;;;;142.52;136.13;;;-1.00;99.90;;;;;;5096173;28;20286;-81
2021/04/13 03:07:21;;;;;;;148.10;141.50;;;-1.10;99.90;;;;;;5095051;28;20345;-81
2021/04/13 03:09:50;;;;;;;143.75;137.27;;;-0.90;99.90;;;;;;5096022;28;20192;-81
2021/04/13 03:12:18;;;;;;;145.40;138.60;;;-1.00;99.90;;;;;;5096054;28;20286;-81
2021/04/13 03:14:48;;;;;;;139.73;132.98;;;0.20;99.90;;;;;;5095877;28;20654;-81
2021/04/13 03:17:18;;;;;;;138.13;131.95;;;0.20;99.90;;;;;;5095999;28;20196;-81
2021/04/13 03:19:47;;;;;;;140.85;134.15;;;0.10;99.90;;;;;;5095841;28;20287;-81
2021/04/13 03:22:16;;;;;;;134.02;128.23;;;0.00;99.90;;;;;;5095772;28;20219;-82
2021/04/13 03:24:46;;;;;;;135.73;129.73;;;0.00;99.90;;;;;;5096049;28;20249;-81
2021/04/13 03:27:15;;;;;;;140.57;134.27;;;-0.10;99.90;;;;;;5095812;28;20242;-81
2021/04/13 03:29:48;;;;;;;133.57;127.57;;;-0.10;99.90;;;;;;5095731;28;20195;-81
2021/04/13 03:32:17;;;;;;;141.65;134.77;;;-0.10;99.90;;;;;;5094347;28;20195;-81
2021/04/13 03:37:19;;;;;;;138.18;131.18;;;-0.50;99.90;;;;;;5565611;22;20314;-79
2021/04/13 03:39:47;;;;;;;144.05;136.85;;;-0.50;99.90;;;;;;5095484;28;20266;-79
2021/04/13 03:42:17;;;;;;;139.68;133.15;;;-0.50;99.90;;;;;;5095245;28;20757;-79
2021/04/13 03:44:45;;;;;;;145.18;137.90;;;-0.60;99.90;;;;;;5751110;22;20315;-79
2021/04/13 03:47:14;;;;;;;132.35;126.25;;;-0.70;99.90;;;;;;5095318;28;20667;-79
2021/04/13 03:49:42;;;;;;;142.13;133.15;;;-0.80;99.90;;;;;;5095386;28;20196;-79
2021/04/13 03:52:13;;;;;;;128.30;121.22;;;-0.40;99.90;;;;;;5093843;28;20195;-78
2021/04/13 03:54:40;;;;;;;131.30;125.20;;;-0.10;99.90;;;;;;5095561;28;20674;-79
2021/04/13 03:57:08;;;;;;;138.02;130.75;;;0.10;99.90;;;;;;5464171;22;20315;-79
2021/04/13 03:59:43;;;;;;;163.32;154.30;;;0.10;99.90;;;;;;5095144;28;20234;-80
2021/04/13 04:02:11;;;;;;;154.00;146.38;;;-0.30;99.90;;;;;;5094910;28;20215;-80
2021/04/13 04:04:41;;;;;;;156.55;148.95;;;-0.40;99.90;;;;;;5095311;28;20584;-80
2021/04/13 04:07:20;;;;;;;165.38;149.02;;;-0.50;99.90;;;;;;5093747;28;20199;-80
2021/04/13 04:09:47;;;;;;;148.45;138.30;;;-0.60;99.90;;;;;;5095010;28;20204;-81
2021/04/13 04:12:22;;;;;;;139.90;133.50;;;-0.70;99.90;;;;;;5094913;28;20208;-79
2021/04/13 04:17:27;;;;;;;143.07;135.77;;;-0.70;99.90;;;;;;5532777;22;20737;-79
2021/04/13 04:19:55;;;;;;;144.20;136.85;;;-0.70;99.90;;;;;;5094784;28;20191;-81
2021/04/13 04:22:25;;;;;;;151.50;143.77;;;-0.60;99.90;;;;;;5093405;28;20231;-79
2021/04/13 04:24:53;;;;;;;136.07;129.77;;;-0.70;99.90;;;;;;5094724;28;20647;-79
2021/04/13 04:27:31;;;;;;;137.35;130.43;;;-0.70;99.90;;;;;;5094404;28;20216;-79
2021/04/13 04:30:10;;;;;;;136.00;129.32;;;-0.80;99.90;;;;;;5094470;28;20252;-79
2021/04/13 04:32:41;;;;;;;135.98;130.00;;;-1.00;99.90;;;;;;5094574;28;20204;-79
2021/04/13 04:35:10;;;;;;;136.43;130.13;;;-1.10;99.90;;;;;;5094720;28;20196;-79
2021/04/13 04:37:56;;;;;;;136.55;128.63;;;-1.20;99.90;;;;;;5093210;28;20823;-80
2021/04/13 04:40:54;;;;;;;131.30;125.15;;;-1.20;99.90;;;;;;5094305;28;20199;-80
2021/04/13 04:43:44;;;;;;;126.88;121.20;;;-1.40;99.90;;;;;;5094069;28;20200;-81
2021/04/13 04:46:12;;;;;;;133.90;127.45;;;-1.50;99.90;;;;;;5094315;28;20286;-79
2021/04/13 04:48:40;;;;;;;127.28;121.68;;;-1.50;99.90;;;;;;5094102;28;20705;-80
2021/04/13 04:51:09;;;;;;;126.13;119.72;;;-1.50;99.90;;;;;;5094221;28;20224;-79
2021/04/13 04:53:37;;;;;;;125.10;118.30;;;-1.60;99.90;;;;;;5093005;28;20276;-79
2021/04/13 04:56:06;;;;;;;123.70;117.47;;;-1.70;99.90;;;;;;5094082;28;20678;-79
2021/04/13 04:58:32;;;;;;;128.13;121.07;;;-1.70;99.90;;;;;;5094319;28;20222;-79
2021/04/13 05:00:59;;;;;;;124.07;117.88;;;-1.70;99.90;;;;;;5093998;28;20219;-80
2021/04/13 05:03:27;;;;;;;135.23;127.88;;;-1.60;99.90;;;;;;5093939;28;20199;-79
2021/04/13 05:05:55;;;;;;;133.73;127.68;;;-1.50;99.90;;;;;;5094040;28;20611;-80
2021/04/13 05:08:22;;;;;;;138.40;132.30;;;-1.50;99.90;;;;;;5092726;28;20571;-80
2021/04/13 05:10:49;;;;;;;139.45;132.70;;;-1.40;99.90;;;;;;5093812;28;20191;-80
2021/04/13 05:13:18;;;;;;;137.25;130.77;;;-1.30;99.90;;;;;;5093637;28;20191;-80
2021/04/13 05:15:47;;;;;;;139.90;133.57;;;-1.30;99.90;;;;;;5093602;28;20242;-79
2021/04/13 05:18:14;;;;;;;139.23;132.73;;;-1.20;99.90;;;;;;5093425;28;20219;-79
2021/04/13 05:20:41;;;;;;;142.98;136.07;;;-1.10;99.90;;;;;;5093501;28;20219;-79
2021/04/13 05:23:08;;;;;;;145.57;137.07;;;-1.00;99.90;;;;;;5092138;28;20210;-79
2021/04/13 05:25:34;;;;;;;146.50;139.82;;;-0.90;99.90;;;;;;5093490;28;20191;-79
2021/04/13 05:28:01;;;;;;;147.55;140.23;;;-0.70;99.90;;;;;;5093392;28;20628;-78
2021/04/13 05:30:28;;;;;;;146.40;139.00;;;-0.70;99.90;;;;;;5093277;28;20192;-79
2021/04/13 05:32:56;;;;;;;153.32;145.63;;;-0.70;99.90;;;;;;5093471;28;20223;-78
2021/04/13 05:35:24;;;;;;;147.48;140.45;;;-0.60;99.90;;;;;;5093477;28;20244;-78
2021/04/13 05:37:50;;;;;;;150.40;143.00;;;-0.50;99.90;;;;;;5092075;28;20227;-79
2021/04/13 05:40:21;;;;;;;145.80;139.15;;;-0.50;99.90;;;;;;5093455;28;20198;-79
2021/04/13 05:42:48;;;;;;;148.15;141.20;;;-0.50;99.90;;;;;;5093067;28;20698;-79
2021/04/13 05:45:16;;;;;;;150.05;142.80;;;-0.50;99.90;;;;;;5093351;28;20195;-79
2021/04/13 05:47:43;;;;;;;160.33;151.97;;;-0.20;99.90;;;;;;5093180;28;20230;-79
2021/04/13 05:50:21;;;;;;;153.47;146.27;;;-0.20;99.90;;;;;;5093182;28;20553;-79
2021/04/13 05:52:48;;;;;;;152.20;144.80;;;-0.10;99.90;;;;;;5091876;28;20458;-79
2021/04/13 05:55:15;;;;;;;161.13;153.52;;;0.00;99.90;;;;;;5092416;28;20191;-78
2021/04/13 05:57:43;;;;;;;153.05;145.23;;;0.20;99.90;;;;;;5093046;28;20231;-78
2021/04/13 06:00:11;;;;;;;161.33;153.53;;;0.10;99.90;;;;;;5092913;28;20240;-78
2021/04/13 06:02:40;;;;;;;167.27;158.27;;;0.20;99.90;;;;;;5092858;28;20485;-78
2021/04/13 06:05:09;;;;;;;162.30;154.00;;;0.20;99.90;;;;;;5093116;28;20511;-78
2021/04/13 06:07:35;;;;;;;158.55;148.85;;;0.30;99.90;;;;;;5091327;28;20541;-78
2021/04/13 06:10:03;;;;;;;171.00;162.30;;;0.40;99.90;;;;;;5092772;28;20214;-79
2021/04/13 06:12:29;;;;;;;160.53;152.00;;;0.40;99.90;;;;;;5092882;28;20960;-80
2021/04/13 06:14:57;;;;;;;160.67;151.57;;;0.50;99.90;;;;;;5092924;28;20460;-80
2021/04/13 06:17:23;;;;;;;153.43;144.97;;;0.60;99.90;;;;;;5092776;28;20474;-79
2021/04/13 06:19:50;;;;;;;154.20;145.87;;;0.60;99.90;;;;;;5092826;28;20453;-79
2021/04/13 06:22:16;;;;;;;144.23;135.87;;;0.60;99.90;;;;;;5091486;28;20489;-79
2021/04/13 06:24:43;;;;;;;154.00;144.83;;;0.60;99.90;;;;;;5092773;28;20486;-79
2021/04/13 06:27:10;;;;;;;154.13;146.77;;;0.60;99.90;;;;;;5092879;28;20614;-79
2021/04/13 06:29:38;;;;;;;144.50;136.63;;;0.70;99.90;;;;;;5092733;28;20801;-78
2021/04/13 06:32:07;;;;;;;144.90;137.37;;;0.80;99.90;;;;;;5092780;28;20537;-81
2021/04/13 06:34:34;;;;;;;137.00;129.60;;;0.80;99.90;;;;;;5092799;28;20489;-79
2021/04/13 06:37:02;;;;;;;144.50;136.97;;;0.90;99.90;;;;;;5091665;28;20457;-79
2021/04/13 06:39:29;;;;;;;149.20;141.17;;;1.10;99.90;;;;;;5092731;28;20483;-80
2021/04/13 06:42:33;;;;;;;142.38;135.02;;;1.20;99.90;;;;;;5085903;28;20478;-81
2021/04/13 06:45:15;;;;;;;142.13;134.63;;;1.40;99.90;;;;;;5047377;28;20196;-80
2021/04/13 06:48:02;;;;;;;135.73;127.97;;;1.60;99.90;;;;;;5087064;28;20472;-80
2021/04/13 06:50:32;;;;;;;133.37;126.27;;;1.80;99.90;;;;;;5091323;28;20485;-79
2021/04/13 06:53:15;;;;;;;135.70;128.60;;;1.90;99.90;;;;;;5090074;28;20980;-79
2021/04/13 06:56:05;;;;;;;143.00;135.00;;;2.40;99.90;;;;;;5091625;28;20460;-79
2021/04/13 06:58:51;;;;;;;143.60;135.70;;;2.60;99.90;;;;;;5092509;28;21023;-80
2021/04/13 07:01:25;;;;;;;145.87;135.57;;;2.70;99.90;;;;;;5092310;28;20477;-80
2021/04/13 07:03:57;;;;;;;148.03;138.63;;;2.80;99.90;;;;;;5089397;28;20445;-81
2021/04/13 07:06:33;;;;;;;154.93;145.60;;;2.90;99.90;;;;;;5092370;28;20477;-81
2021/04/13 07:09:05;;;;;;;155.63;146.97;;;2.90;99.90;;;;;;5073708;28;20446;-80
2021/04/13 07:11:36;;;;;;;149.40;141.10;;;3.10;99.90;;;;;;5073859;28;21004;-80
2021/04/13 07:14:11;;;;;;;154.17;144.73;;;3.30;99.90;;;;;;5075080;28;20860;-79
2021/04/13 07:16:41;;;;;;;149.13;140.27;;;3.50;99.90;;;;;;5074715;28;20469;-81
2021/04/13 07:19:19;;;;;;;152.50;143.87;;;3.70;99.90;;;;;;5074458;28;20459;-79
2021/04/13 07:21:54;;;;;;;149.30;140.30;;;3.70;99.90;;;;;;5073636;28;20995;-80
2021/04/13 07:24:25;;;;;;;141.30;132.30;;;3.90;99.90;;;;;;5074825;28;20458;-81
2021/04/13 07:26:58;;;;;;;134.57;126.80;;;4.00;99.90;;;;;;5074465;28;20471;-80
2021/04/13 07:29:30;;;;;;;144.87;135.63;;;3.90;99.90;;;;;;5074372;28;20459;-80
2021/04/13 07:32:00;;;;;;;118.00;112.00;;;4.10;99.90;;;;;;5073898;28;20485;-79
2021/04/13 07:34:29;;;;;;;111.73;105.73;;;3.90;99.90;;;;;;5074296;28;20494;-79
2021/04/13 07:37:01;;;;;;;99.03;93.70;;;3.90;99.90;;;;;;5073214;28;20455;-78
2021/04/13 07:39:28;;;;;;;95.87;90.40;;;4.10;99.90;;;;;;5074776;28;20465;-78
2021/04/13 07:42:01;;;;;;;110.83;101.40;;;4.10;99.90;;;;;;5074160;28;20589;-79
2021/04/13 07:44:50;;;;;;;94.07;88.57;;;4.40;99.90;;;;;;5074507;28;20452;-80
2021/04/13 07:47:27;;;;;;;102.20;95.20;;;4.50;99.90;;;;;;5074309;28;20535;-79
2021/04/13 07:49:56;;;;;;;77.23;72.80;;;4.50;99.90;;;;;;5074219;28;20546;-80
2021/04/13 07:52:42;;;;;;;75.27;71.23;;;4.50;99.90;;;;;;5073867;28;20510;-81
2021/04/13 07:55:20;;;;;;;55.77;52.53;;;4.40;99.90;;;;;;5075010;28;20501;-80
2021/04/13 07:57:58;;;;;;;41.20;38.00;;;4.30;99.90;;;;;;5074192;28;20454;-80
2021/04/13 08:00:32;;;;;;;44.27;40.60;;;4.20;99.90;;;;;;5075110;28;20295;-80
2021/04/13 08:03:07;;;;;;;39.27;36.30;;;4.20;99.90;;;;;;5074901;28;20513;-80
2021/04/13 08:05:41;;;;;;;38.57;35.53;;;4.10;99.90;;;;;;5074766;28;20486;-80
2021/04/13 08:08:12;;;;;;;28.00;25.80;;;4.10;99.90;;;;;;5073561;28;20456;-80
2021/04/13 08:10:40;;;;;;;19.87;17.97;;;4.10;99.90;;;;;;5074626;28;20474;-80
2021/04/13 08:13:10;;;;;;;26.20;24.13;;;4.20;99.90;;;;;;5074491;28;20553;-80
2021/04/13 08:15:55;;;;;;;18.67;17.23;;;4.40;99.90;;;;;;5074541;28;20571;-81
2021/04/13 08:18:30;;;;;;;20.87;18.93;;;4.60;99.90;;;;;;5073891;28;20455;-81
2021/04/13 08:21:15;;;;;;;23.03;20.83;;;5.00;99.90;;;;;;5074463;28;20846;-80
2021/04/13 08:23:42;;;;;;;30.67;11.63;;;5.30;99.90;;;;;;5074679;28;20984;-80
2021/04/13 08:26:40;;;;;;;24.73;11.50;;;5.40;99.90;;;;;;5074585;28;20506;-80
2021/04/13 08:29:25;;;;;;;19.13;6.60;;;5.70;99.90;;;;;;5062482;28;20869;-80
2021/04/13 08:35:02;;;;;;;12.20;4.77;;;6.00;99.90;;;;;;5075977;28;20817;-80
2021/04/13 08:37:51;;;;;;;18.90;5.80;;;6.30;99.90;;;;;;5072918;28;20541;-80
2021/04/13 08:40:32;;;;;;;11.20;5.57;;;6.20;99.90;;;;;;5074084;28;20763;-81
2021/04/13 08:43:11;;;;;;;15.50;6.60;;;6.30;99.90;;;;;;5074216;28;20488;-80
2021/04/13 08:45:41;;;;;;;13.53;4.80;;;6.80;99.90;;;;;;5074215;28;20447;-81
2021/04/13 08:48:16;;;;;;;14.77;4.10;;;7.20;99.90;;;;;;5074014;28;20443;-81
2021/04/13 08:50:46;;;;;;;10.27;3.20;;;7.50;99.90;;;;;;5073948;28;20545;-82
2021/04/13 08:53:30;;;;;;;11.00;3.77;;;7.60;92.90;;;;;;5072796;28;20452;-81
2021/04/13 08:56:05;;;;;;;14.77;4.43;;;8.00;92.40;;;;;;5073814;28;20453;-82
2021/04/13 08:58:44;;;;;;;11.00;3.10;;;8.90;95.30;;;;;;5073771;28;20490;-81
2021/04/13 09:01:31;;;;;;;17.00;4.10;;;8.80;70.10;;;;;;5073666;28;20850;-81
2021/04/13 09:03:59;;;;;;;15.90;5.13;;;8.20;62.40;;;;;;5074006;28;20853;-82
2021/04/13 09:06:46;;;;;;;12.80;3.57;;;8.00;55.20;;;;;;5073862;28;20470;-81
2021/04/13 09:09:30;;;;;;;10.90;2.50;;;8.50;46.90;;;;;;5073134;28;20450;-81
2021/04/13 09:12:06;;;;;;;12.60;1.73;;;9.10;36.00;;;;;;5073725;28;20454;-82
2021/04/13 09:14:36;;;;;;;13.17;2.60;;;9.10;28.50;;;;;;5073476;28;20814;-82
2021/04/13 09:17:11;;;;;;;12.17;1.90;;;9.50;47.00;;;;;;5073342;28;20896;-78
2021/04/13 09:19:49;;;;;;;13.73;1.80;;;9.10;29.70;;;;;;5073256;28;20812;-81
2021/04/13 09:22:22;;;;;;;17.03;2.03;;;8.80;26.90;;;;;;5071818;28;20512;-82
2021/04/13 09:25:05;;;;;;;12.00;1.53;;;8.80;28.30;;;;;;5073119;28;20451;-81
2021/04/13 09:27:43;;;;;;;12.30;1.60;;;8.30;30.30;;;;;;5073628;28;20462;-82
2021/04/13 09:30:28;;;;;;;16.60;1.53;;;7.80;35.20;;;;;;5072056;28;20560;-81
2021/04/13 09:33:09;;;;;;;9.77;1.20;;;7.70;33.60;;;;;;5073251;28;20463;-82
2021/04/13 09:35:54;;;;;;;9.40;1.07;;;7.10;28.60;;;;;;5073168;28;20531;-82
2021/04/13 09:38:48;;;;;;;8.67;0.97;;;6.80;41.10;;;;;;5072008;28;20450;-81
2021/04/13 09:41:47;;;;;;;9.17;1.53;;;7.00;45.30;;;;;;5072846;28;20493;-82
2021/04/13 09:44:49;;;;;;;7.63;0.80;;;6.90;42.20;;;;;;5073146;28;20493;-81
2021/04/13 09:47:38;;;;;;;7.30;0.97;;;6.70;40.20;;;;;;5073008;28;20457;-81
2021/04/13 09:50:43;;;;;;;7.50;1.17;;;6.90;31.90;;;;;;5073893;28;20501;-81
2021/04/13 09:53:27;;;;;;;8.40;1.10;;;7.80;33.70;;;;;;5071674;28;20949;-81
2021/04/13 09:56:12;;;;;;;11.63;1.73;;;8.60;38.00;;;;;;5072859;28;20962;-82
2021/04/13 09:59:21;;;;;;;9.77;1.40;;;9.40;27.30;;;;;;5073983;28;20527;-83
2021/04/13 10:02:00;;;;;;;14.35;1.70;;;10.00;27.00;;;;;;5071757;28;20446;-82
2021/04/13 10:04:54;;;;;;;15.77;1.80;;;9.50;23.80;;;;;;5072905;28;20196;-82
2021/04/13 10:07:32;;;;;;;14.20;1.50;;;10.40;20.10;;;;;;5071612;28;20453;-82
2021/04/13 10:10:07;;;;;;;12.10;1.50;;;9.30;16.90;;;;;;5072633;28;20456;-82
2021/04/13 10:13:03;;;;;;;14.57;1.97;;;9.20;22.60;;;;;;5072788;28;20474;-82
2021/04/13 10:16:05;;;;;;;14.83;2.20;;;8.70;19.70;;;;;;5072814;28;20525;-82
2021/04/13 10:19:12;;;;;;;13.30;1.63;;;8.30;28.50;;;;;;5072781;28;20450;-81
2021/04/13 10:22:15;;;;;;;10.60;1.00;;;8.10;21.30;;;;;;5072686;28;20484;-82
2021/04/13 10:25:17;;;;;;;9.90;1.03;;;9.20;17.30;;;;;;5072653;28;20471;-82
2021/04/13 10:28:16;;;;;;;11.80;1.30;;;10.60;10.30;;;;;;5072895;28;20460;-82
2021/04/13 10:31:25;;;;;;;;;;;;;;;;;;;;;
2021/04/13 10:34:28;;;;;;;13.73;1.30;;;12.10;1.00;;;;;;5022574;28;20453;-82
2021/04/13 10:37:36;;;;;;;;;;;;;;;;;;;;;
2021/04/13 10:40:29;;;;;;;14.13;1.27;;;12.40;1.00;;;;;;5071918;28;20481;-82
2021/04/13 10:43:44;;;;;;;12.93;1.30;;;11.60;1.00;;;;;;5076027;28;20493;-82
2021/04/13 10:46:32;;;;;;;12.23;1.00;;;11.30;1.00;;;;;;5076264;28;20476;-82
2021/04/13 10:49:54;;;;;;;16.93;2.20;;;11.60;1.00;;;;;;5076339;28;20576;-83
2021/04/13 10:53:10;;;;;;;14.33;1.47;;;12.10;1.00;;;;;;4993483;28;20460;-82
2021/04/13 10:56:15;;;;;;;;;;;;;;;;;;;;;
2021/04/13 10:59:24;;;;;;;15.53;1.50;;;13.50;1.00;;;;;;5054092;28;20454;-83
2021/04/13 11:02:05;;;;;;;18.30;1.37;;;13.60;1.00;;;;;;5012262;28;20960;-82
2021/04/13 11:05:14;;;;;;;15.57;0.90;;;13.00;1.00;;;;;;5076040;28;20455;-83
2021/04/13 11:08:38;;;;;;;16.23;1.03;;;12.90;1.00;;;;;;5074645;28;20461;-83
2021/04/13 11:11:45;;;;;;;17.83;1.17;;;13.30;1.00;;;;;;5075826;28;20515;-83
2021/04/13 11:14:39;;;;;;;18.63;1.10;;;13.70;1.00;;;;;;5076155;28;20488;-83
2021/04/13 11:17:37;;;;;;;17.27;1.60;;;13.20;1.00;;;;;;5072229;28;21054;-83
2021/04/13 11:20:23;;;;;;;17.43;1.53;;;13.10;1.00;;;;;;5075710;28;20599;-83
2021/04/13 11:23:38;;;;;;;17.87;1.30;;;13.30;1.00;;;;;;5074197;28;20450;-82
2021/04/13 11:26:53;;;;;;;;;;;;;;;;;;;;;
2021/04/13 11:30:04;;;;;;;16.80;1.30;;;14.00;1.00;;;;;;5066727;28;20450;-83
2021/04/13 11:33:14;;;;;;;17.47;1.60;;;14.20;1.00;;;;;;5075459;28;20859;-83
2021/04/13 11:35:43;;;;;;;18.57;1.40;;;14.10;1.00;;;;;;5075492;28;20457;-83
2021/04/13 11:38:45;;;;;;;17.10;1.20;;;15.40;1.00;;;;;;5074218;28;20979;-83
2021/04/13 11:41:45;;;;;;;16.83;1.10;;;15.20;1.00;;;;;;5075367;28;20458;-83
2021/04/13 11:44:30;;;;;;;;;;;;;;;;;;;;;
2021/04/13 11:47:10;;;;;;;20.20;1.50;;;15.20;1.00;;;;;;5066467;28;20438;-83
2021/04/13 11:49:44;;;;;;;18.60;1.10;;;15.10;1.00;;;;;;5075274;28;20450;-83
2021/04/13 11:52:18;;;;;;;20.00;1.50;;;15.30;1.00;;;;;;5073210;28;20488;-82
2021/04/13 11:54:54;;;;;;;20.50;2.07;;;13.50;1.00;;;;;;5074565;28;20499;-82
2021/04/13 11:57:25;;;;;;;18.33;1.37;;;12.80;1.00;;;;;;5074963;28;20458;-82
2021/04/13 12:03:35;;;;;;;15.63;1.43;;;11.80;1.00;;;;;;5188488;22;21051;-82
2021/04/13 12:06:10;;;;;;;16.80;1.20;;;10.90;1.00;;;;;;5074769;28;20469;-82
2021/04/13 12:08:46;;;;;;;14.40;1.97;;;10.10;1.00;;;;;;5073566;28;20453;-81
2021/04/13 12:11:19;;;;;;;14.30;1.50;;;9.70;1.00;;;;;;5074819;28;20464;-81
2021/04/13 12:13:51;;;;;;;17.50;1.87;;;9.80;1.00;;;;;;5074772;28;20462;-81
2021/04/13 12:16:19;;;;;;;28.23;1.83;;;11.30;1.00;;;;;;5074835;28;20464;-82
2021/04/13 12:19:17;;;;;;;11.57;0.90;;;12.60;1.00;;;;;;5074662;28;20487;-82
2021/04/13 12:26:03;;;;;;;13.87;0.93;;;13.30;1.00;;;;;;5088703;28;20484;-82
2021/04/13 12:28:48;;;;;;;14.37;1.40;;;13.80;1.00;;;;;;5073526;28;20449;-82
2021/04/13 12:31:26;;;;;;;19.27;1.20;;;15.10;1.00;;;;;;5094824;28;20454;-82
2021/04/13 12:34:09;;;;;;;19.30;1.23;;;15.30;1.00;;;;;;5094514;28;20456;-83
2021/04/13 12:37:00;;;;;;;15.50;1.20;;;14.80;1.00;;;;;;5094540;28;20540;-82
2021/04/13 12:40:12;;;;;;;18.33;1.17;;;14.20;1.00;;;;;;5094442;28;20461;-82
2021/04/13 12:42:48;;;;;;;16.63;1.60;;;15.00;1.00;;;;;;5092256;28;20456;-82
2021/04/13 12:45:53;;;;;;;17.73;1.20;;;13.50;1.00;;;;;;5094340;28;20445;-83
2021/04/13 12:48:29;;;;;;;15.43;1.07;;;13.00;1.00;;;;;;5094254;28;20456;-82
2021/04/13 12:51:24;;;;;;;15.60;1.33;;;12.30;1.00;;;;;;5094211;28;20794;-82
2021/04/13 12:54:11;;;;;;;14.97;1.20;;;11.40;1.00;;;;;;5091960;28;20449;-81
2021/04/13 12:56:38;;;;;;;14.03;1.23;;;10.90;1.00;;;;;;5094519;28;20447;-81
2021/04/13 12:59:11;;;;;;;13.33;1.30;;;10.70;1.00;;;;;;5094296;28;20546;-80
2021/04/13 13:01:57;;;;;;;;;;;;;;;;;;;;;
2021/04/13 13:04:33;;;;;;;12.03;1.30;;;10.60;1.00;;;;;;5092305;28;20447;-80
2021/04/13 13:07:00;;;;;;;11.40;1.30;;;10.80;1.00;;;;;;5092403;28;20948;-81
2021/04/13 13:09:30;;;;;;;11.20;1.17;;;12.50;1.00;;;;;;5093576;28;20451;-81
2021/04/13 13:12:10;;;;;;;11.70;1.30;;;14.30;1.00;;;;;;5093730;28;20474;-82
2021/04/13 13:14:44;;;;;;;13.60;1.20;;;15.00;1.00;;;;;;5092698;28;20532;-82
2021/04/13 13:17:31;;;;;;;13.73;1.40;;;15.40;1.00;;;;;;5093792;28;20190;-83
2021/04/13 13:26:43;;;;;;;18.50;1.50;;;11.50;1.00;;;;;;4944874;28;20812;-82
2021/04/13 13:29:11;;;;;;;13.90;1.37;;;10.90;1.00;;;;;;5069329;28;20453;-81
2021/04/13 13:31:40;;;;;;;12.93;1.17;;;10.40;1.00;;;;;;5093379;28;20967;-81
2021/04/13 13:34:12;;;;;;;13.67;1.73;;;10.10;1.00;;;;;;5093504;28;20544;-82
2021/04/13 13:36:43;;;;;;;12.07;1.07;;;10.20;1.00;;;;;;5093369;28;20448;-81
2021/04/13 13:39:13;;;;;;;11.10;1.00;;;10.60;1.00;;;;;;5092061;28;20495;-81
2021/04/13 13:41:44;;;;;;;11.27;1.13;;;10.30;1.00;;;;;;5093302;28;20819;-81
2021/04/13 13:44:20;;;;;;;11.40;1.30;;;10.20;1.00;;;;;;5093627;28;20535;-81
2021/04/13 13:46:58;;;;;;;11.30;1.47;;;10.30;1.00;;;;;;5093134;28;20460;-82